sensor_id;sensor_type;location;lat;lon;timestamp;temperature;humidity
60495;DHT22;46342;49.046;11.920;2023-01-10T00:01:17;7.20;70.20
60495;DHT22;46342;49.046;11.920;2023-01-10T00:03:43;7.20;70.20
60495;DHT22;46342;49.046;11.920;2023-01-10T00:06:08;7.20;70.20
60495;DHT22;46342;49.046;11.920;2023-01-10T00:08:34;7.20;70.20
60495;DHT22;46342;49.046;11.920;2023-01-10T00:10:59;7.20;70.20
60495;DHT22;46342;49.046;11.920;2023-01-10T00:13:45;7.20;70.20
60495;DHT22;46342;49.046;11.920;2023-01-10T00:16:10;7.20;70.20
60495;DHT22;46342;49.046;11.920;2023-01-10T00:18:36;7.10;70.20
60495;DHT22;46342;49.046;11.920;2023-01-10T00:21:01;7.20;70.40
60495;DHT22;46342;49.046;11.920;2023-01-10T00:23:27;7.10;70.30
60495;DHT22;46342;49.046;11.920;2023-01-10T00:25:53;7.20;70.40
60495;DHT22;46342;49.046;11.920;2023-01-10T00:28:18;7.20;70.40
60495;DHT22;46342;49.046;11.920;2023-01-10T00:30:52;7.20;70.40
60495;DHT22;46342;49.046;11.920;2023-01-10T00:33:25;7.20;70.50
60495;DHT22;46342;49.046;11.920;2023-01-10T00:35:50;7.20;70.40
60495;DHT22;46342;49.046;11.920;2023-01-10T00:38:16;7.20;70.40
60495;DHT22;46342;49.046;11.920;2023-01-10T00:40:42;7.20;70.50
60495;DHT22;46342;49.046;11.920;2023-01-10T00:43:08;7.20;70.50
60495;DHT22;46342;49.046;11.920;2023-01-10T00:45:53;7.20;70.50
60495;DHT22;46342;49.046;11.920;2023-01-10T00:48:18;7.20;70.40
60495;DHT22;46342;49.046;11.920;2023-01-10T00:50:45;7.30;70.50
60495;DHT22;46342;49.046;11.920;2023-01-10T00:53:11;7.20;70.40
60495;DHT22;46342;49.046;11.920;2023-01-10T00:55:37;7.20;71.40
60495;DHT22;46342;49.046;11.920;2023-01-10T00:58:02;7.20;70.40
60495;DHT22;46342;49.046;11.920;2023-01-10T01:00:28;7.20;70.50
60495;DHT22;46342;49.046;11.920;2023-01-10T01:02:54;7.20;70.40
60495;DHT22;46342;49.046;11.920;2023-01-10T01:05:20;7.30;70.50
60495;DHT22;46342;49.046;11.920;2023-01-10T01:07:50;7.30;70.50
60495;DHT22;46342;49.046;11.920;2023-01-10T01:10:17;7.30;70.50
60495;DHT22;46342;49.046;11.920;2023-01-10T01:12:56;7.30;70.50
60495;DHT22;46342;49.046;11.920;2023-01-10T01:15:23;7.30;70.50
60495;DHT22;46342;49.046;11.920;2023-01-10T01:17:48;7.30;70.40
60495;DHT22;46342;49.046;11.920;2023-01-10T01:20:14;7.30;70.40
60495;DHT22;46342;49.046;11.920;2023-01-10T01:22:40;7.30;70.40
60495;DHT22;46342;49.046;11.920;2023-01-10T01:25:06;7.30;70.30
60495;DHT22;46342;49.046;11.920;2023-01-10T01:27:32;7.30;70.30
60495;DHT22;46342;49.046;11.920;2023-01-10T01:29:59;7.30;70.30
60495;DHT22;46342;49.046;11.920;2023-01-10T01:32:25;7.30;70.30
60495;DHT22;46342;49.046;11.920;2023-01-10T01:34:50;7.30;70.30
60495;DHT22;46342;49.046;11.920;2023-01-10T01:37:16;7.30;70.30
60495;DHT22;46342;49.046;11.920;2023-01-10T01:39:44;7.30;70.40
60495;DHT22;46342;49.046;11.920;2023-01-10T01:42:32;7.30;70.40
60495;DHT22;46342;49.046;11.920;2023-01-10T01:47:53;7.30;70.30
60495;DHT22;46342;49.046;11.920;2023-01-10T01:50:34;7.30;70.40
60495;DHT22;46342;49.046;11.920;2023-01-10T01:53:09;7.30;70.40
60495;DHT22;46342;49.046;11.920;2023-01-10T01:55:36;7.30;70.30
60495;DHT22;46342;49.046;11.920;2023-01-10T01:58:06;7.30;70.30
60495;DHT22;46342;49.046;11.920;2023-01-10T02:00:33;7.30;70.30
60495;DHT22;46342;49.046;11.920;2023-01-10T02:03:00;7.30;70.30
60495;DHT22;46342;49.046;11.920;2023-01-10T02:05:26;7.30;71.20
60495;DHT22;46342;49.046;11.920;2023-01-10T02:07:54;7.30;70.30
60495;DHT22;46342;49.046;11.920;2023-01-10T02:10:23;7.30;71.30
60495;DHT22;46342;49.046;11.920;2023-01-10T02:12:52;7.30;70.30
60495;DHT22;46342;49.046;11.920;2023-01-10T02:15:19;7.30;70.30
60495;DHT22;46342;49.046;11.920;2023-01-10T02:17:51;7.30;70.30
60495;DHT22;46342;49.046;11.920;2023-01-10T02:20:18;7.40;70.40
60495;DHT22;46342;49.046;11.920;2023-01-10T02:31:24;7.40;70.30
60495;DHT22;46342;49.046;11.920;2023-01-10T02:34:07;7.40;70.30
60495;DHT22;46342;49.046;11.920;2023-01-10T02:36:49;7.40;70.20
60495;DHT22;46342;49.046;11.920;2023-01-10T02:42:08;7.30;70.10
60495;DHT22;46342;49.046;11.920;2023-01-10T02:44:49;7.30;70.10
60495;DHT22;46342;49.046;11.920;2023-01-10T02:47:18;7.30;70.10
60495;DHT22;46342;49.046;11.920;2023-01-10T02:49:49;7.30;70.10
60495;DHT22;46342;49.046;11.920;2023-01-10T02:52:29;7.30;70.10
60495;DHT22;46342;49.046;11.920;2023-01-10T02:55:00;7.30;70.20
60495;DHT22;46342;49.046;11.920;2023-01-10T02:57:58;7.30;70.10
60495;DHT22;46342;49.046;11.920;2023-01-10T03:03:27;7.30;70.20
60495;DHT22;46342;49.046;11.920;2023-01-10T03:09:48;7.30;70.20
60495;DHT22;46342;49.046;11.920;2023-01-10T03:11:59;7.30;71.10
60495;DHT22;46342;49.046;11.920;2023-01-10T03:14:27;7.30;70.20
60495;DHT22;46342;49.046;11.920;2023-01-10T03:17:03;7.30;70.10
60495;DHT22;46342;49.046;11.920;2023-01-10T03:19:43;7.30;70.10
60495;DHT22;46342;49.046;11.920;2023-01-10T03:22:11;7.30;70.10
60495;DHT22;46342;49.046;11.920;2023-01-10T03:24:45;7.30;70.10
60495;DHT22;46342;49.046;11.920;2023-01-10T03:30:02;7.30;70.20
60495;DHT22;46342;49.046;11.920;2023-01-10T03:32:31;7.30;70.20
60495;DHT22;46342;49.046;11.920;2023-01-10T03:34:59;7.30;70.20
60495;DHT22;46342;49.046;11.920;2023-01-10T03:37:57;7.30;70.30
60495;DHT22;46342;49.046;11.920;2023-01-10T03:43:20;7.30;70.50
60495;DHT22;46342;49.046;11.920;2023-01-10T03:46:19;7.30;70.30
60495;DHT22;46342;49.046;11.920;2023-01-10T03:48:48;7.30;70.30
60495;DHT22;46342;49.046;11.920;2023-01-10T03:51:14;7.30;70.30
60495;DHT22;46342;49.046;11.920;2023-01-10T03:53:42;7.30;70.30
60495;DHT22;46342;49.046;11.920;2023-01-10T03:56:12;7.30;70.30
60495;DHT22;46342;49.046;11.920;2023-01-10T03:58:38;7.30;70.30
60495;DHT22;46342;49.046;11.920;2023-01-10T04:01:03;7.30;70.30
60495;DHT22;46342;49.046;11.920;2023-01-10T04:03:29;7.30;70.40
60495;DHT22;46342;49.046;11.920;2023-01-10T04:05:54;7.30;70.30
60495;DHT22;46342;49.046;11.920;2023-01-10T04:08:20;7.30;70.40
60495;DHT22;46342;49.046;11.920;2023-01-10T04:10:48;7.30;70.40
60495;DHT22;46342;49.046;11.920;2023-01-10T04:13:13;7.40;70.60
60495;DHT22;46342;49.046;11.920;2023-01-10T04:15:39;7.30;70.40
60495;DHT22;46342;49.046;11.920;2023-01-10T04:18:04;7.30;70.40
60495;DHT22;46342;49.046;11.920;2023-01-10T04:20:30;7.30;70.40
60495;DHT22;46342;49.046;11.920;2023-01-10T04:22:55;7.30;70.50
60495;DHT22;46342;49.046;11.920;2023-01-10T04:25:22;7.30;70.50
60495;DHT22;46342;49.046;11.920;2023-01-10T04:27:51;7.30;70.50
60495;DHT22;46342;49.046;11.920;2023-01-10T04:30:18;7.30;70.70
60495;DHT22;46342;49.046;11.920;2023-01-10T04:32:43;7.30;70.70
60495;DHT22;46342;49.046;11.920;2023-01-10T04:35:09;7.30;70.70
60495;DHT22;46342;49.046;11.920;2023-01-10T04:37:35;7.30;70.70
60495;DHT22;46342;49.046;11.920;2023-01-10T04:40:00;7.30;70.70
60495;DHT22;46342;49.046;11.920;2023-01-10T04:42:26;7.30;70.70
60495;DHT22;46342;49.046;11.920;2023-01-10T04:44:51;7.30;70.70
60495;DHT22;46342;49.046;11.920;2023-01-10T04:47:17;7.30;70.80
60495;DHT22;46342;49.046;11.920;2023-01-10T04:49:43;7.30;70.80
60495;DHT22;46342;49.046;11.920;2023-01-10T04:52:09;7.30;70.90
60495;DHT22;46342;49.046;11.920;2023-01-10T04:54:35;7.30;70.90
60495;DHT22;46342;49.046;11.920;2023-01-10T04:57:00;7.30;70.90
60495;DHT22;46342;49.046;11.920;2023-01-10T04:59:26;7.30;70.90
60495;DHT22;46342;49.046;11.920;2023-01-10T05:01:52;7.30;70.80
60495;DHT22;46342;49.046;11.920;2023-01-10T05:04:17;7.30;70.80
60495;DHT22;46342;49.046;11.920;2023-01-10T05:06:43;7.30;70.80
60495;DHT22;46342;49.046;11.920;2023-01-10T05:09:08;7.30;70.90
60495;DHT22;46342;49.046;11.920;2023-01-10T05:11:34;7.30;70.80
60495;DHT22;46342;49.046;11.920;2023-01-10T05:14:00;7.30;70.90
60495;DHT22;46342;49.046;11.920;2023-01-10T05:16:26;7.30;70.90
60495;DHT22;46342;49.046;11.920;2023-01-10T05:18:52;7.30;70.90
60495;DHT22;46342;49.046;11.920;2023-01-10T05:21:17;7.30;71.00
60495;DHT22;46342;49.046;11.920;2023-01-10T05:23:43;7.40;71.20
60495;DHT22;46342;49.046;11.920;2023-01-10T05:26:17;7.30;71.10
60495;DHT22;46342;49.046;11.920;2023-01-10T05:28:43;7.30;71.10
60495;DHT22;46342;49.046;11.920;2023-01-10T05:31:11;7.30;71.90
60495;DHT22;46342;49.046;11.920;2023-01-10T05:33:37;7.30;71.00
60495;DHT22;46342;49.046;11.920;2023-01-10T05:36:04;7.30;70.90
60495;DHT22;46342;49.046;11.920;2023-01-10T05:38:31;7.30;71.00
60495;DHT22;46342;49.046;11.920;2023-01-10T05:40:57;7.40;71.20
60495;DHT22;46342;49.046;11.920;2023-01-10T05:43:24;7.30;71.10
60495;DHT22;46342;49.046;11.920;2023-01-10T05:45:50;7.30;71.00
60495;DHT22;46342;49.046;11.920;2023-01-10T05:48:16;7.30;70.90
60495;DHT22;46342;49.046;11.920;2023-01-10T05:50:41;7.30;70.90
60495;DHT22;46342;49.046;11.920;2023-01-10T05:53:07;7.30;70.90
60495;DHT22;46342;49.046;11.920;2023-01-10T05:55:33;7.30;70.80
60495;DHT22;46342;49.046;11.920;2023-01-10T05:57:58;7.30;70.80
60495;DHT22;46342;49.046;11.920;2023-01-10T06:00:24;7.30;71.70
60495;DHT22;46342;49.046;11.920;2023-01-10T06:02:54;7.40;71.00
60495;DHT22;46342;49.046;11.920;2023-01-10T06:05:20;7.30;71.00
60495;DHT22;46342;49.046;11.920;2023-01-10T06:07:46;7.20;70.80
60495;DHT22;46342;49.046;11.920;2023-01-10T06:10:11;7.20;70.80
60495;DHT22;46342;49.046;11.920;2023-01-10T06:12:40;7.20;70.80
60495;DHT22;46342;49.046;11.920;2023-01-10T06:15:07;7.20;70.90
60495;DHT22;46342;49.046;11.920;2023-01-10T06:17:33;7.20;70.90
60495;DHT22;46342;49.046;11.920;2023-01-10T06:19:58;7.20;71.00
60495;DHT22;46342;49.046;11.920;2023-01-10T06:22:24;7.20;71.00
60495;DHT22;46342;49.046;11.920;2023-01-10T06:24:50;7.20;71.00
60495;DHT22;46342;49.046;11.920;2023-01-10T06:27:16;7.20;71.00
60495;DHT22;46342;49.046;11.920;2023-01-10T06:29:42;7.20;71.20
60495;DHT22;46342;49.046;11.920;2023-01-10T06:32:07;7.20;71.20
60495;DHT22;46342;49.046;11.920;2023-01-10T06:34:33;7.20;71.10
60495;DHT22;46342;49.046;11.920;2023-01-10T06:36:58;7.20;71.10
60495;DHT22;46342;49.046;11.920;2023-01-10T06:39:24;7.20;71.00
60495;DHT22;46342;49.046;11.920;2023-01-10T06:41:50;7.20;71.10
60495;DHT22;46342;49.046;11.920;2023-01-10T06:44:15;7.20;71.20
60495;DHT22;46342;49.046;11.920;2023-01-10T06:46:41;7.20;71.30
60495;DHT22;46342;49.046;11.920;2023-01-10T06:49:06;7.20;71.40
60495;DHT22;46342;49.046;11.920;2023-01-10T06:51:32;7.20;71.40
60495;DHT22;46342;49.046;11.920;2023-01-10T06:53:58;7.20;71.40
60495;DHT22;46342;49.046;11.920;2023-01-10T06:56:24;7.20;71.40
60495;DHT22;46342;49.046;11.920;2023-01-10T06:58:50;7.20;71.40
60495;DHT22;46342;49.046;11.920;2023-01-10T07:01:18;7.20;72.40
60495;DHT22;46342;49.046;11.920;2023-01-10T07:03:43;7.20;71.50
60495;DHT22;46342;49.046;11.920;2023-01-10T07:06:09;7.20;71.80
60495;DHT22;46342;49.046;11.920;2023-01-10T07:08:43;7.20;71.20
60495;DHT22;46342;49.046;11.920;2023-01-10T07:11:10;7.20;71.50
60495;DHT22;46342;49.046;11.920;2023-01-10T07:13:36;7.20;71.40
60495;DHT22;46342;49.046;11.920;2023-01-10T07:16:02;7.20;71.40
60495;DHT22;46342;49.046;11.920;2023-01-10T07:18:28;7.10;71.40
60495;DHT22;46342;49.046;11.920;2023-01-10T07:20:53;7.20;71.50
60495;DHT22;46342;49.046;11.920;2023-01-10T07:23:20;7.20;71.60
60495;DHT22;46342;49.046;11.920;2023-01-10T07:25:45;7.20;71.60
60495;DHT22;46342;49.046;11.920;2023-01-10T07:28:11;7.20;71.60
60495;DHT22;46342;49.046;11.920;2023-01-10T07:30:36;7.20;71.60
60495;DHT22;46342;49.046;11.920;2023-01-10T07:33:02;7.20;71.60
60495;DHT22;46342;49.046;11.920;2023-01-10T07:35:28;7.20;71.60
60495;DHT22;46342;49.046;11.920;2023-01-10T07:37:57;7.20;71.60
60495;DHT22;46342;49.046;11.920;2023-01-10T07:40:24;7.30;71.70
60495;DHT22;46342;49.046;11.920;2023-01-10T07:42:49;7.20;71.60
60495;DHT22;46342;49.046;11.920;2023-01-10T07:45:19;7.20;71.60
60495;DHT22;46342;49.046;11.920;2023-01-10T07:47:45;7.20;71.60
60495;DHT22;46342;49.046;11.920;2023-01-10T07:50:10;7.20;71.60
60495;DHT22;46342;49.046;11.920;2023-01-10T07:52:36;7.20;71.60
60495;DHT22;46342;49.046;11.920;2023-01-10T07:55:03;7.20;71.50
60495;DHT22;46342;49.046;11.920;2023-01-10T07:57:29;7.20;71.60
60495;DHT22;46342;49.046;11.920;2023-01-10T07:59:54;7.30;71.60
60495;DHT22;46342;49.046;11.920;2023-01-10T08:02:20;7.20;71.60
60495;DHT22;46342;49.046;11.920;2023-01-10T08:04:46;7.20;71.60
60495;DHT22;46342;49.046;11.920;2023-01-10T08:07:11;7.30;71.70
60495;DHT22;46342;49.046;11.920;2023-01-10T08:09:37;7.30;71.70
60495;DHT22;46342;49.046;11.920;2023-01-10T08:12:02;7.30;71.70
60495;DHT22;46342;49.046;11.920;2023-01-10T08:14:28;7.30;71.80
60495;DHT22;46342;49.046;11.920;2023-01-10T08:16:53;7.30;72.20
60495;DHT22;46342;49.046;11.920;2023-01-10T08:19:19;7.30;71.80
60495;DHT22;46342;49.046;11.920;2023-01-10T08:21:44;7.30;71.90
60495;DHT22;46342;49.046;11.920;2023-01-10T08:24:10;7.30;71.80
60495;DHT22;46342;49.046;11.920;2023-01-10T08:26:36;7.30;71.80
60495;DHT22;46342;49.046;11.920;2023-01-10T08:29:01;7.30;71.80
60495;DHT22;46342;49.046;11.920;2023-01-10T08:31:27;7.30;71.70
60495;DHT22;46342;49.046;11.920;2023-01-10T08:33:52;7.30;71.70
60495;DHT22;46342;49.046;11.920;2023-01-10T08:36:19;7.30;71.70
60495;DHT22;46342;49.046;11.920;2023-01-10T08:38:46;7.30;71.70
60495;DHT22;46342;49.046;11.920;2023-01-10T08:41:12;7.40;71.70
60495;DHT22;46342;49.046;11.920;2023-01-10T08:43:38;7.30;71.60
60495;DHT22;46342;49.046;11.920;2023-01-10T08:46:05;7.30;71.60
60495;DHT22;46342;49.046;11.920;2023-01-10T08:48:31;7.30;71.70
60495;DHT22;46342;49.046;11.920;2023-01-10T08:50:56;7.40;71.90
60495;DHT22;46342;49.046;11.920;2023-01-10T08:53:22;7.40;71.90
60495;DHT22;46342;49.046;11.920;2023-01-10T08:55:48;7.40;72.00
60495;DHT22;46342;49.046;11.920;2023-01-10T08:58:14;7.40;71.90
60495;DHT22;46342;49.046;11.920;2023-01-10T09:00:40;7.40;71.90
60495;DHT22;46342;49.046;11.920;2023-01-10T09:03:06;7.40;71.90
60495;DHT22;46342;49.046;11.920;2023-01-10T09:05:32;7.40;72.00
60495;DHT22;46342;49.046;11.920;2023-01-10T09:08:00;7.40;72.00
60495;DHT22;46342;49.046;11.920;2023-01-10T09:10:27;7.40;72.00
60495;DHT22;46342;49.046;11.920;2023-01-10T09:12:52;7.40;72.10
60495;DHT22;46342;49.046;11.920;2023-01-10T09:15:23;7.40;72.10
60495;DHT22;46342;49.046;11.920;2023-01-10T09:17:55;7.50;72.30
60495;DHT22;46342;49.046;11.920;2023-01-10T09:20:22;7.50;72.40
60495;DHT22;46342;49.046;11.920;2023-01-10T09:22:48;7.50;72.20
60495;DHT22;46342;49.046;11.920;2023-01-10T09:25:14;7.50;72.00
60495;DHT22;46342;49.046;11.920;2023-01-10T09:27:39;7.60;72.10
60495;DHT22;46342;49.046;11.920;2023-01-10T09:30:06;7.50;71.90
60495;DHT22;46342;49.046;11.920;2023-01-10T09:32:31;7.60;72.00
60495;DHT22;46342;49.046;11.920;2023-01-10T09:34:57;7.50;71.90
60495;DHT22;46342;49.046;11.920;2023-01-10T09:37:22;7.60;72.00
60495;DHT22;46342;49.046;11.920;2023-01-10T09:39:48;7.60;72.10
60495;DHT22;46342;49.046;11.920;2023-01-10T09:45:14;7.60;72.20
60495;DHT22;46342;49.046;11.920;2023-01-10T09:47:54;7.70;72.30
60495;DHT22;46342;49.046;11.920;2023-01-10T09:53:17;7.70;72.00
60495;DHT22;46342;49.046;11.920;2023-01-10T09:55:45;7.70;71.80
60495;DHT22;46342;49.046;11.920;2023-01-10T09:58:14;7.70;71.60
60495;DHT22;46342;49.046;11.920;2023-01-10T10:01:03;7.60;71.30
60495;DHT22;46342;49.046;11.920;2023-01-10T10:06:15;7.60;71.30
60495;DHT22;46342;49.046;11.920;2023-01-10T10:08:43;7.60;71.20
60495;DHT22;46342;49.046;11.920;2023-01-10T10:16:34;7.60;71.60
60495;DHT22;46342;49.046;11.920;2023-01-10T10:19:21;7.50;71.60
60495;DHT22;46342;49.046;11.920;2023-01-10T10:25:03;7.60;71.90
60495;DHT22;46342;49.046;11.920;2023-01-10T10:27:38;7.50;71.70
60495;DHT22;46342;49.046;11.920;2023-01-10T10:30:29;7.60;71.70
60495;DHT22;46342;49.046;11.920;2023-01-10T10:35:47;7.50;71.50
60495;DHT22;46342;49.046;11.920;2023-01-10T10:38:24;7.50;71.40
60495;DHT22;46342;49.046;11.920;2023-01-10T10:40:52;7.50;71.40
60495;DHT22;46342;49.046;11.920;2023-01-10T10:43:20;7.50;71.40
60495;DHT22;46342;49.046;11.920;2023-01-10T10:46:06;7.60;71.60
60495;DHT22;46342;49.046;11.920;2023-01-10T10:48:47;7.50;71.30
60495;DHT22;46342;49.046;11.920;2023-01-10T10:54:01;7.50;71.40
60495;DHT22;46342;49.046;11.920;2023-01-10T10:56:27;7.40;71.20
60495;DHT22;46342;49.046;11.920;2023-01-10T10:58:55;7.50;71.50
60495;DHT22;46342;49.046;11.920;2023-01-10T11:01:22;7.40;72.50
60495;DHT22;46342;49.046;11.920;2023-01-10T11:03:55;7.50;71.90
60495;DHT22;46342;49.046;11.920;2023-01-10T11:06:24;7.50;71.60
60495;DHT22;46342;49.046;11.920;2023-01-10T11:08:54;7.50;71.70
60495;DHT22;46342;49.046;11.920;2023-01-10T11:11:27;7.50;71.70
60495;DHT22;46342;49.046;11.920;2023-01-10T11:16:40;7.50;71.70
60495;DHT22;46342;49.046;11.920;2023-01-10T11:19:25;7.50;71.70
60495;DHT22;46342;49.046;11.920;2023-01-10T11:22:02;7.60;71.70
60495;DHT22;46342;49.046;11.920;2023-01-10T11:24:50;7.60;71.60
60495;DHT22;46342;49.046;11.920;2023-01-10T11:27:20;7.60;71.60
60495;DHT22;46342;49.046;11.920;2023-01-10T11:29:49;7.60;71.50
60495;DHT22;46342;49.046;11.920;2023-01-10T11:32:22;7.60;72.30
60495;DHT22;46342;49.046;11.920;2023-01-10T11:34:56;7.60;72.10
60495;DHT22;46342;49.046;11.920;2023-01-10T11:37:31;7.60;71.10
60495;DHT22;46342;49.046;11.920;2023-01-10T11:40:21;7.60;71.10
60495;DHT22;46342;49.046;11.920;2023-01-10T11:42:49;7.60;72.00
60495;DHT22;46342;49.046;11.920;2023-01-10T11:50:35;7.60;71.10
60495;DHT22;46342;49.046;11.920;2023-01-10T11:53:03;7.60;71.10
60495;DHT22;46342;49.046;11.920;2023-01-10T11:55:31;7.60;72.10
60495;DHT22;46342;49.046;11.920;2023-01-10T11:58:12;7.60;71.20
60495;DHT22;46342;49.046;11.920;2023-01-10T12:00:44;7.60;70.90
60495;DHT22;46342;49.046;11.920;2023-01-10T12:03:23;7.60;71.10
60495;DHT22;46342;49.046;11.920;2023-01-10T12:05:53;7.60;71.10
60495;DHT22;46342;49.046;11.920;2023-01-10T12:08:26;7.60;71.10
60495;DHT22;46342;49.046;11.920;2023-01-10T12:11:23;7.60;71.10
60495;DHT22;46342;49.046;11.920;2023-01-10T12:13:49;7.70;71.20
60495;DHT22;46342;49.046;11.920;2023-01-10T12:18:40;7.60;71.30
60495;DHT22;46342;49.046;11.920;2023-01-10T12:21:06;7.70;71.30
60495;DHT22;46342;49.046;11.920;2023-01-10T12:23:33;7.70;72.20
60495;DHT22;46342;49.046;11.920;2023-01-10T12:26:04;7.70;71.20
60495;DHT22;46342;49.046;11.920;2023-01-10T12:28:30;7.80;71.30
60495;DHT22;46342;49.046;11.920;2023-01-10T12:30:58;7.80;71.30
60495;DHT22;46342;49.046;11.920;2023-01-10T12:33:36;7.80;71.10
60495;DHT22;46342;49.046;11.920;2023-01-10T12:36:19;7.80;70.90
60495;DHT22;46342;49.046;11.920;2023-01-10T12:41:48;7.90;71.00
60495;DHT22;46342;49.046;11.920;2023-01-10T12:44:38;7.90;70.50
60495;DHT22;46342;49.046;11.920;2023-01-10T12:52:59;8.00;70.50
60495;DHT22;46342;49.046;11.920;2023-01-10T12:55:29;8.00;70.60
60495;DHT22;46342;49.046;11.920;2023-01-10T12:58:02;8.00;71.40
60495;DHT22;46342;49.046;11.920;2023-01-10T13:02:59;8.00;70.30
60495;DHT22;46342;49.046;11.920;2023-01-10T13:05:27;8.00;70.30
60495;DHT22;46342;49.046;11.920;2023-01-10T13:07:59;8.10;70.30
60495;DHT22;46342;49.046;11.920;2023-01-10T13:10:26;8.10;70.20
60495;DHT22;46342;49.046;11.920;2023-01-10T13:12:58;8.10;70.30
60495;DHT22;46342;49.046;11.920;2023-01-10T13:15:36;8.10;69.80
60495;DHT22;46342;49.046;11.920;2023-01-10T13:18:23;8.10;69.70
60495;DHT22;46342;49.046;11.920;2023-01-10T13:21:08;8.20;69.10
60495;DHT22;46342;49.046;11.920;2023-01-10T13:23:49;8.10;69.20
60495;DHT22;46342;49.046;11.920;2023-01-10T13:26:16;8.10;69.30
60495;DHT22;46342;49.046;11.920;2023-01-10T13:31:44;8.20;69.30
60495;DHT22;46342;49.046;11.920;2023-01-10T13:34:14;8.20;69.00
60495;DHT22;46342;49.046;11.920;2023-01-10T13:36:44;8.20;69.70
60495;DHT22;46342;49.046;11.920;2023-01-10T13:39:26;8.20;69.80
60495;DHT22;46342;49.046;11.920;2023-01-10T13:52:54;8.20;68.20
60495;DHT22;46342;49.046;11.920;2023-01-10T14:03:54;8.10;68.40
60495;DHT22;46342;49.046;11.920;2023-01-10T14:11:31;8.10;68.50
60495;DHT22;46342;49.046;11.920;2023-01-10T14:14:00;8.10;68.30
60495;DHT22;46342;49.046;11.920;2023-01-10T14:18:51;8.10;68.00
60495;DHT22;46342;49.046;11.920;2023-01-10T14:21:25;8.10;68.00
60495;DHT22;46342;49.046;11.920;2023-01-10T14:23:53;8.00;67.20
60495;DHT22;46342;49.046;11.920;2023-01-10T14:26:35;8.10;67.80
60495;DHT22;46342;49.046;11.920;2023-01-10T14:29:09;8.10;67.00
60495;DHT22;46342;49.046;11.920;2023-01-10T14:31:45;8.00;67.30
60495;DHT22;46342;49.046;11.920;2023-01-10T14:34:27;8.00;67.00
60495;DHT22;46342;49.046;11.920;2023-01-10T14:39:23;8.00;67.30
60495;DHT22;46342;49.046;11.920;2023-01-10T14:41:52;8.00;67.60
60495;DHT22;46342;49.046;11.920;2023-01-10T14:47:26;7.90;67.20
60495;DHT22;46342;49.046;11.920;2023-01-10T14:49:52;7.90;66.60
60495;DHT22;46342;49.046;11.920;2023-01-10T14:52:21;7.90;66.80
60495;DHT22;46342;49.046;11.920;2023-01-10T14:55:10;7.90;67.40
60495;DHT22;46342;49.046;11.920;2023-01-10T14:57:36;7.80;67.00
60495;DHT22;46342;49.046;11.920;2023-01-10T15:00:13;7.80;66.90
60495;DHT22;46342;49.046;11.920;2023-01-10T15:02:44;7.80;66.90
60495;DHT22;46342;49.046;11.920;2023-01-10T15:05:17;7.80;67.10
60495;DHT22;46342;49.046;11.920;2023-01-10T15:07:43;7.70;67.20
60495;DHT22;46342;49.046;11.920;2023-01-10T15:10:37;7.70;67.70
60495;DHT22;46342;49.046;11.920;2023-01-10T15:13:04;7.70;67.40
60495;DHT22;46342;49.046;11.920;2023-01-10T15:15:36;7.60;67.80
60495;DHT22;46342;49.046;11.920;2023-01-10T15:18:17;7.60;67.60
60495;DHT22;46342;49.046;11.920;2023-01-10T15:20:46;7.60;67.70
60495;DHT22;46342;49.046;11.920;2023-01-10T15:23:13;7.60;67.90
60495;DHT22;46342;49.046;11.920;2023-01-10T15:25:40;7.60;67.80
60495;DHT22;46342;49.046;11.920;2023-01-10T15:28:17;7.50;67.60
60495;DHT22;46342;49.046;11.920;2023-01-10T15:30:44;7.50;67.10
60495;DHT22;46342;49.046;11.920;2023-01-10T15:33:24;7.50;67.50
60495;DHT22;46342;49.046;11.920;2023-01-10T15:35:51;7.50;67.30
60495;DHT22;46342;49.046;11.920;2023-01-10T15:38:20;7.40;68.50
60495;DHT22;46342;49.046;11.920;2023-01-10T15:40:55;7.40;67.50
60495;DHT22;46342;49.046;11.920;2023-01-10T15:43:30;7.40;67.50
60495;DHT22;46342;49.046;11.920;2023-01-10T15:45:57;7.40;67.60
60495;DHT22;46342;49.046;11.920;2023-01-10T15:48:37;7.30;67.70
60495;DHT22;46342;49.046;11.920;2023-01-10T15:54:01;7.40;67.50
60495;DHT22;46342;49.046;11.920;2023-01-10T15:56:31;7.30;67.50
60495;DHT22;46342;49.046;11.920;2023-01-10T15:58:58;7.20;67.70
60495;DHT22;46342;49.046;11.920;2023-01-10T16:01:24;7.20;68.60
60495;DHT22;46342;49.046;11.920;2023-01-10T16:03:52;7.20;67.70
60495;DHT22;46342;49.046;11.920;2023-01-10T16:06:38;7.20;67.70
60495;DHT22;46342;49.046;11.920;2023-01-10T16:09:07;7.20;67.50
60495;DHT22;46342;49.046;11.920;2023-01-10T16:11:37;7.10;67.70
60495;DHT22;46342;49.046;11.920;2023-01-10T16:14:23;7.10;67.80
60495;DHT22;46342;49.046;11.920;2023-01-10T16:16:48;7.10;67.80
60495;DHT22;46342;49.046;11.920;2023-01-10T16:19:14;7.10;67.80
60495;DHT22;46342;49.046;11.920;2023-01-10T16:21:42;7.00;67.60
60495;DHT22;46342;49.046;11.920;2023-01-10T16:24:17;7.00;67.60
60495;DHT22;46342;49.046;11.920;2023-01-10T16:26:44;7.00;67.60
60495;DHT22;46342;49.046;11.920;2023-01-10T16:29:10;7.00;67.80
60495;DHT22;46342;49.046;11.920;2023-01-10T16:31:36;6.90;67.80
60495;DHT22;46342;49.046;11.920;2023-01-10T16:34:02;6.90;67.90
60495;DHT22;46342;49.046;11.920;2023-01-10T16:36:27;6.90;67.90
60495;DHT22;46342;49.046;11.920;2023-01-10T16:38:53;6.90;68.00
60495;DHT22;46342;49.046;11.920;2023-01-10T16:41:18;6.90;68.10
60495;DHT22;46342;49.046;11.920;2023-01-10T16:44:02;6.80;68.00
60495;DHT22;46342;49.046;11.920;2023-01-10T16:46:28;6.80;68.00
60495;DHT22;46342;49.046;11.920;2023-01-10T16:48:54;6.80;68.10
60495;DHT22;46342;49.046;11.920;2023-01-10T16:51:29;6.80;68.20
60495;DHT22;46342;49.046;11.920;2023-01-10T16:53:56;6.80;68.10
60495;DHT22;46342;49.046;11.920;2023-01-10T16:56:27;6.80;68.20
60495;DHT22;46342;49.046;11.920;2023-01-10T16:58:54;6.80;68.20
60495;DHT22;46342;49.046;11.920;2023-01-10T17:01:26;6.80;68.30
60495;DHT22;46342;49.046;11.920;2023-01-10T17:03:53;6.80;68.30
60495;DHT22;46342;49.046;11.920;2023-01-10T17:06:19;6.70;68.30
60495;DHT22;46342;49.046;11.920;2023-01-10T17:08:45;6.70;68.30
60495;DHT22;46342;49.046;11.920;2023-01-10T17:11:47;6.70;68.30
60495;DHT22;46342;49.046;11.920;2023-01-10T17:14:07;6.70;68.30
60495;DHT22;46342;49.046;11.920;2023-01-10T17:16:33;6.70;68.30
60495;DHT22;46342;49.046;11.920;2023-01-10T17:18:59;6.70;68.40
60495;DHT22;46342;49.046;11.920;2023-01-10T17:21:24;6.70;68.50
60495;DHT22;46342;49.046;11.920;2023-01-10T17:23:51;6.70;68.50
60495;DHT22;46342;49.046;11.920;2023-01-10T17:26:17;6.70;68.50
60495;DHT22;46342;49.046;11.920;2023-01-10T17:28:43;6.70;68.50
60495;DHT22;46342;49.046;11.920;2023-01-10T17:31:10;6.70;68.50
60495;DHT22;46342;49.046;11.920;2023-01-10T17:33:36;6.60;68.30